createdAt,value
2018-04-14T00:01:24.156Z,48.60
2018-04-14T00:03:51.264Z,48.60
2018-04-14T00:06:19.198Z,48.60
2018-04-14T00:08:46.330Z,48.60
2018-04-14T00:11:13.619Z,48.50
2018-04-14T00:13:40.936Z,48.60
2018-04-14T00:16:08.078Z,48.60
2018-04-14T00:18:35.270Z,48.60
2018-04-14T00:21:02.430Z,48.60
2018-04-14T00:23:29.593Z,48.50
2018-04-14T00:25:56.728Z,48.60
2018-04-14T00:28:23.896Z,48.60
2018-04-14T00:30:51.026Z,48.60
2018-04-14T00:33:18.180Z,48.60
2018-04-14T00:35:45.311Z,48.60
2018-04-14T00:38:12.461Z,48.60
2018-04-14T00:40:39.627Z,48.60
2018-04-14T00:43:06.777Z,48.60
2018-04-14T00:45:33.904Z,48.70
2018-04-14T00:48:01.063Z,48.80
2018-04-14T00:50:28.221Z,48.80
2018-04-14T00:52:55.369Z,48.90
2018-04-14T00:55:23.039Z,49.00
2018-04-14T00:57:50.713Z,49.00
2018-04-14T01:00:17.844Z,49.00
2018-04-14T01:02:45.740Z,49.00
2018-04-14T01:05:12.963Z,49.00
2018-04-14T01:07:40.101Z,48.90
2018-04-14T01:10:07.258Z,48.90
2018-04-14T01:12:34.395Z,48.80
2018-04-14T01:15:01.549Z,48.90
2018-04-14T01:17:28.701Z,48.60
2018-04-14T01:19:55.836Z,48.50
2018-04-14T01:22:23.010Z,48.80
2018-04-14T01:24:50.165Z,48.40
2018-04-14T01:27:18.094Z,48.40
2018-04-14T01:29:45.236Z,48.30
2018-04-14T01:32:12.380Z,48.50
2018-04-14T01:34:39.531Z,48.40
2018-04-14T01:37:06.677Z,48.50
2018-04-14T01:39:33.837Z,48.60
2018-04-14T01:42:00.743Z,48.80
2018-04-14T01:44:28.656Z,48.60
2018-04-14T01:46:55.809Z,48.50
2018-04-14T01:49:23.834Z,48.70
2018-04-14T01:51:50.948Z,48.70
2018-04-14T01:54:18.960Z,48.70
2018-04-14T01:56:46.112Z,48.60
2018-04-14T01:59:13.255Z,48.60
2018-04-14T02:01:40.366Z,48.70
2018-04-14T02:04:08.291Z,48.60
2018-04-14T02:06:35.417Z,48.60
2018-04-14T02:09:02.585Z,48.60
2018-04-14T02:11:29.499Z,48.70
2018-04-14T02:13:56.637Z,48.70
2018-04-14T02:16:23.851Z,48.50
2018-04-14T02:18:50.999Z,48.50
2018-04-14T02:21:18.155Z,48.60
2018-04-14T02:23:45.297Z,48.50
2018-04-14T02:26:12.545Z,48.50
2018-04-14T02:28:39.683Z,48.70
2018-04-14T02:31:06.843Z,48.60
2018-04-14T02:33:33.983Z,48.80
2018-04-14T02:36:01.128Z,48.70
2018-04-14T02:38:29.021Z,49.00
2018-04-14T02:40:56.140Z,49.00
2018-04-14T02:43:24.025Z,49.20
2018-04-14T02:45:51.205Z,49.20
2018-04-14T02:48:18.361Z,49.30
2018-04-14T02:50:45.505Z,49.30
2018-04-14T02:53:12.650Z,49.40
2018-04-14T02:55:39.792Z,49.30
2018-04-14T02:58:06.930Z,49.30
2018-04-14T03:00:34.095Z,49.30
2018-04-14T03:03:01.234Z,48.90
2018-04-14T03:05:28.349Z,48.80
2018-04-14T03:07:55.483Z,48.60
2018-04-14T03:10:22.643Z,49.10
2018-04-14T03:12:49.944Z,48.80
2018-04-14T03:15:17.058Z,49.20
2018-04-14T03:17:44.202Z,49.00
2018-04-14T03:20:12.209Z,49.10
2018-04-14T03:22:39.524Z,49.10
2018-04-14T03:25:06.415Z,49.40
2018-04-14T03:27:33.558Z,49.30
2018-04-14T03:30:00.696Z,49.10
2018-04-14T03:32:27.837Z,48.90
2018-04-14T03:34:54.964Z,48.80
2018-04-14T03:37:22.088Z,48.70
2018-04-14T03:39:49.349Z,48.50
2018-04-14T03:42:16.496Z,48.30
2018-04-14T03:44:43.752Z,48.60
2018-04-14T03:47:10.973Z,49.20
2018-04-14T03:49:38.020Z,48.90
2018-04-14T03:52:05.165Z,49.20
2018-04-14T03:54:32.325Z,49.30
2018-04-14T03:56:59.447Z,49.30
2018-04-14T03:59:26.582Z,49.30
2018-04-14T04:01:53.735Z,49.20
2018-04-14T04:04:20.885Z,49.00
2018-04-14T04:06:48.022Z,48.90
2018-04-14T04:09:15.156Z,49.00
2018-04-14T04:11:42.314Z,49.00
2018-04-14T04:14:09.466Z,48.80
2018-04-14T04:16:36.604Z,48.90
2018-04-14T04:19:04.497Z,48.50
2018-04-14T04:21:32.404Z,48.80
2018-04-14T04:23:59.657Z,48.80
2018-04-14T04:26:26.777Z,48.40
2018-04-14T04:28:54.710Z,48.50
2018-04-14T04:31:22.624Z,48.70
2018-04-14T04:33:49.768Z,48.40
2018-04-14T04:36:16.890Z,48.50
2018-04-14T04:38:44.062Z,48.40
2018-04-14T04:41:11.185Z,48.30
2018-04-14T04:43:38.302Z,48.50
2018-04-14T04:46:05.445Z,48.50
2018-04-14T04:48:32.655Z,48.50
2018-04-14T04:50:59.822Z,47.70
2018-04-14T04:53:27.634Z,48.40
2018-04-14T04:55:54.806Z,47.80
2018-04-14T04:58:21.929Z,47.90
2018-04-14T05:00:49.088Z,48.00
2018-04-14T05:03:16.234Z,47.80
2018-04-14T05:05:43.390Z,48.00
2018-04-14T05:08:10.512Z,48.10
2018-04-14T05:10:37.658Z,47.80
2018-04-14T05:13:04.832Z,48.20
2018-04-14T05:15:32.766Z,48.00
2018-04-14T05:17:59.922Z,47.80
2018-04-14T05:20:27.062Z,47.80
2018-04-14T05:22:54.178Z,47.80
2018-04-14T05:25:21.332Z,47.80
2018-04-14T05:27:48.262Z,47.80
2018-04-14T05:30:15.380Z,48.20
2018-04-14T05:32:43.304Z,48.20
2018-04-14T05:35:10.428Z,48.20
2018-04-14T05:37:37.574Z,48.50
2018-04-14T05:40:04.734Z,48.40
2018-04-14T05:42:32.642Z,48.50
2018-04-14T05:44:59.796Z,48.50
2018-04-14T05:47:27.045Z,48.50
2018-04-14T05:49:54.183Z,47.90
2018-04-14T05:52:21.372Z,48.00
2018-04-14T05:54:48.513Z,48.80
2018-04-14T05:57:15.658Z,48.40
2018-04-14T05:59:42.895Z,48.50
2018-04-14T06:02:10.053Z,48.80
2018-04-14T06:04:37.204Z,48.90
2018-04-14T06:07:05.123Z,49.30
2018-04-14T06:09:32.261Z,49.30
2018-04-14T06:11:59.421Z,49.10
2018-04-14T06:14:26.596Z,49.40
2018-04-14T06:16:53.780Z,49.10
2018-04-14T06:19:20.907Z,49.40
2018-04-14T06:21:48.070Z,49.70
2018-04-14T06:24:15.229Z,49.70
2018-04-14T06:26:42.366Z,50.00
2018-04-14T06:29:10.284Z,49.80
2018-04-14T06:31:37.441Z,49.70
2018-04-14T06:34:04.577Z,49.90
2018-04-14T06:36:32.471Z,50.00
2018-04-14T06:38:59.627Z,50.00
2018-04-14T06:41:26.786Z,50.20
2018-04-14T06:43:53.928Z,50.40
2018-04-14T06:46:21.090Z,50.20
2018-04-14T06:48:49.171Z,50.30
2018-04-14T06:51:16.329Z,50.20
2018-04-14T06:53:43.480Z,50.30
2018-04-14T06:56:10.645Z,50.30
2018-04-14T06:58:37.801Z,50.30
2018-04-14T07:01:04.953Z,50.40
2018-04-14T07:03:32.087Z,50.40
2018-04-14T07:05:59.986Z,50.40
2018-04-14T07:08:27.140Z,50.30
2018-04-14T07:10:54.285Z,50.30
2018-04-14T07:13:21.448Z,50.00
2018-04-14T07:15:48.607Z,49.50
2018-04-14T07:18:15.767Z,50.10
2018-04-14T07:20:42.941Z,50.10
2018-04-14T07:23:10.230Z,50.20
2018-04-14T07:25:37.350Z,50.30
2018-04-14T07:28:04.505Z,50.10
2018-04-14T07:30:31.638Z,49.60
2018-04-14T07:32:58.788Z,49.50
2018-04-14T07:35:25.952Z,49.60
2018-04-14T07:37:53.115Z,49.50
2018-04-14T07:40:20.268Z,49.40
2018-04-14T07:42:47.421Z,49.00
2018-04-14T07:45:15.322Z,48.40
2018-04-14T07:47:42.508Z,48.40
2018-04-14T07:50:09.667Z,48.10
2018-04-14T07:52:36.825Z,48.10
2018-04-14T07:55:04.162Z,48.10
2018-04-14T07:57:32.170Z,47.60
2018-04-14T07:59:59.106Z,47.60
2018-04-14T08:02:26.259Z,47.40
2018-04-14T08:04:53.384Z,47.50
2018-04-14T08:07:20.620Z,47.50
2018-04-14T08:09:47.782Z,47.50
2018-04-14T08:12:14.943Z,47.30
2018-04-14T08:14:42.072Z,47.20
2018-04-14T08:17:09.194Z,47.20
2018-04-14T08:19:36.365Z,47.20
2018-04-14T08:22:03.525Z,47.10
2018-04-14T08:24:30.714Z,47.10
2018-04-14T08:26:59.006Z,47.10
2018-04-14T08:29:26.155Z,47.10
2018-04-14T08:31:54.148Z,47.00
2018-04-14T08:34:21.279Z,47.00
2018-04-14T08:36:48.547Z,47.10
2018-04-14T08:39:15.702Z,47.10
2018-04-14T08:41:42.853Z,47.20
2018-04-14T08:44:09.996Z,47.00
2018-04-14T08:46:37.151Z,47.00
2018-04-14T08:49:04.307Z,47.10
2018-04-14T08:51:31.457Z,44.80
2018-04-14T08:53:58.623Z,45.60
2018-04-14T08:56:26.786Z,45.50
2018-04-14T08:58:54.130Z,44.80
2018-04-14T09:01:21.489Z,45.30
2018-04-14T09:03:48.669Z,45.60
2018-04-14T09:06:15.785Z,45.50
2018-04-14T09:08:42.990Z,45.10
2018-04-14T09:11:10.124Z,45.20
2018-04-14T09:13:37.267Z,45.30
2018-04-14T09:16:04.464Z,44.60
2018-04-14T09:18:34.583Z,44.70
2018-04-14T09:21:01.734Z,44.60
2018-04-14T09:23:29.744Z,44.20
2018-04-14T09:25:57.634Z,45.90
2018-04-14T09:28:24.752Z,45.20
2018-04-14T09:30:51.925Z,45.10
2018-04-14T09:33:19.065Z,45.50
2018-04-14T09:35:46.965Z,44.90
2018-04-14T09:38:14.099Z,44.50
2018-04-14T09:40:41.213Z,44.40
2018-04-14T09:43:09.147Z,45.30
2018-04-14T09:45:36.048Z,44.60
2018-04-14T09:48:03.942Z,44.80
2018-04-14T09:50:31.097Z,44.60
2018-04-14T09:52:58.265Z,44.80
2018-04-14T09:55:26.265Z,45.00
2018-04-14T09:57:53.432Z,45.00
2018-04-14T10:00:26.213Z,45.20
2018-04-14T10:02:53.894Z,45.50
2018-04-14T10:05:21.209Z,45.40
2018-04-14T10:07:48.353Z,45.60
2018-04-14T10:10:15.509Z,45.70
2018-04-14T10:12:42.965Z,45.90
2018-04-14T10:15:10.097Z,46.30
2018-04-14T10:17:37.237Z,46.60
2018-04-14T10:20:04.392Z,46.90
2018-04-14T10:22:31.537Z,47.20
2018-04-14T10:24:58.666Z,47.30
2018-04-14T10:27:25.586Z,48.20
2018-04-14T10:29:52.749Z,47.60
2018-04-14T10:32:19.952Z,47.70
2018-04-14T10:34:47.620Z,47.70
2018-04-14T10:37:14.778Z,47.50
2018-04-14T10:39:41.943Z,47.50
2018-04-14T10:42:09.202Z,47.60
2018-04-14T10:44:36.324Z,47.70
2018-04-14T10:47:03.474Z,47.70
2018-04-14T10:49:31.795Z,47.80
2018-04-14T10:51:59.231Z,47.80
2018-04-14T10:54:26.342Z,47.80
2018-04-14T10:56:54.246Z,47.80
2018-04-14T10:59:21.410Z,47.70
2018-04-14T11:01:48.559Z,47.60
2018-04-14T11:04:15.699Z,47.50
2018-04-14T11:06:42.837Z,47.60
2018-04-14T11:09:09.987Z,47.90
2018-04-14T11:11:37.119Z,47.90
2018-04-14T11:14:04.269Z,47.90
2018-04-14T11:16:31.391Z,47.90
2018-04-14T11:18:59.327Z,47.90
2018-04-14T11:21:31.032Z,47.90
2018-04-14T11:23:58.192Z,48.00
2018-04-14T11:26:25.357Z,48.10
2018-04-14T11:28:52.503Z,47.90
2018-04-14T11:31:19.961Z,47.90
2018-04-14T11:33:47.223Z,47.90
2018-04-14T11:36:14.333Z,47.90
2018-04-14T11:38:41.461Z,47.90
2018-04-14T11:41:08.593Z,47.90
2018-04-14T11:43:35.717Z,47.90
2018-04-14T11:46:02.945Z,48.60
2018-04-14T11:48:30.094Z,48.00
2018-04-14T11:50:57.255Z,47.50
2018-04-14T11:53:25.352Z,47.40
2018-04-14T11:55:52.595Z,47.40
2018-04-14T11:58:19.737Z,47.50
2018-04-14T12:00:46.873Z,47.40
2018-04-14T12:03:14.017Z,47.40
2018-04-14T12:05:41.229Z,47.50
2018-04-14T12:08:08.375Z,47.20
2018-04-14T12:10:35.513Z,47.30
2018-04-14T12:13:03.400Z,47.20
2018-04-14T12:15:30.537Z,47.20
2018-04-14T12:17:58.459Z,47.10
2018-04-14T12:20:25.686Z,47.10
2018-04-14T12:22:52.812Z,47.00
2018-04-14T12:25:20.712Z,47.00
2018-04-14T12:27:47.965Z,46.90
2018-04-14T12:30:15.214Z,46.90
2018-04-14T12:32:42.351Z,46.90
2018-04-14T12:35:09.582Z,46.90
2018-04-14T12:37:36.737Z,46.90
2018-04-14T12:40:03.921Z,46.80
2018-04-14T12:42:31.110Z,46.70
2018-04-14T12:44:58.594Z,46.60
2018-04-14T12:47:25.745Z,46.70
2018-04-14T12:49:52.900Z,46.80
2018-04-14T12:52:20.050Z,46.90
2018-04-14T12:54:47.196Z,46.90
2018-04-14T12:57:14.316Z,46.90
2018-04-14T12:59:41.456Z,46.90
2018-04-14T13:02:08.600Z,47.00
2018-04-14T13:04:35.734Z,47.70
2018-04-14T13:07:02.922Z,47.00
2018-04-14T13:09:30.074Z,47.00
2018-04-14T13:11:57.228Z,47.10
2018-04-14T13:14:24.386Z,47.10
2018-04-14T13:16:51.540Z,47.10
2018-04-14T13:19:18.691Z,47.20
2018-04-14T13:21:46.786Z,47.30
2018-04-14T13:24:13.926Z,47.20
2018-04-14T13:26:41.065Z,47.30
2018-04-14T13:29:08.211Z,47.30
2018-04-14T13:31:35.352Z,47.30
2018-04-14T13:34:02.528Z,47.30
2018-04-14T13:36:29.695Z,47.30
2018-04-14T13:38:56.828Z,47.30
2018-04-14T13:41:24.442Z,47.10
2018-04-14T13:43:51.770Z,47.20
2018-04-14T13:46:18.905Z,47.10
2018-04-14T13:48:46.042Z,47.00
2018-04-14T13:51:13.243Z,47.10
2018-04-14T13:53:40.469Z,46.90
2018-04-14T13:56:07.716Z,47.00
2018-04-14T13:58:34.981Z,46.90
2018-04-14T14:01:02.222Z,46.90
2018-04-14T14:03:29.345Z,46.90
2018-04-14T14:05:56.488Z,46.80
2018-04-14T14:08:23.653Z,46.70
2018-04-14T14:10:50.809Z,46.70
2018-04-14T14:13:17.955Z,46.60
2018-04-14T14:15:45.073Z,46.60
2018-04-14T14:18:20.150Z,46.70
2018-04-14T14:20:47.303Z,46.50
2018-04-14T14:23:14.445Z,46.60
2018-04-14T14:25:41.582Z,46.50
2018-04-14T14:28:08.757Z,46.50
2018-04-14T14:30:35.891Z,46.50
2018-04-14T14:33:03.831Z,46.50
2018-04-14T14:35:30.987Z,46.40
2018-04-14T14:37:58.131Z,46.30
2018-04-14T14:40:25.281Z,46.30
2018-04-14T14:42:52.413Z,46.40
2018-04-14T14:45:19.711Z,46.30
2018-04-14T14:47:46.947Z,46.40
2018-04-14T14:50:19.565Z,46.40
2018-04-14T14:52:46.703Z,46.20
2018-04-14T14:55:13.835Z,46.80
2018-04-14T14:57:40.979Z,46.20
2018-04-14T15:00:08.155Z,46.20
2018-04-14T15:02:35.321Z,46.10
2018-04-14T15:05:02.508Z,46.20
2018-04-14T15:07:29.833Z,46.00
2018-04-14T15:09:56.965Z,46.00
2018-04-14T15:12:25.050Z,45.90
2018-04-14T15:14:52.167Z,45.90
2018-04-14T15:17:20.085Z,46.10
2018-04-14T15:19:47.243Z,46.00
2018-04-14T15:22:14.404Z,45.90
2018-04-14T15:24:41.568Z,45.90
2018-04-14T15:27:08.709Z,45.90
2018-04-14T15:29:35.875Z,45.80
2018-04-14T15:32:03.054Z,45.90
2018-04-14T15:34:30.227Z,45.80
2018-04-14T15:36:57.411Z,45.80
2018-04-14T15:39:24.565Z,45.80
2018-04-14T15:41:51.819Z,45.80
2018-04-14T15:44:19.990Z,45.70
2018-04-14T15:46:47.282Z,45.70
2018-04-14T15:49:14.414Z,45.70
2018-04-14T15:51:41.573Z,45.70
2018-04-14T15:54:08.711Z,45.80
2018-04-14T15:56:35.886Z,45.70
2018-04-14T15:59:03.036Z,45.80
2018-04-14T16:03:59.054Z,45.70
2018-04-14T16:06:26.204Z,45.70
2018-04-14T16:08:53.324Z,45.60
2018-04-14T16:11:20.500Z,45.70
2018-04-14T16:13:47.630Z,45.70
2018-04-14T16:16:14.808Z,45.70
2018-04-14T16:18:41.706Z,45.80
2018-04-14T16:21:09.613Z,45.80
2018-04-14T16:23:36.744Z,45.60
2018-04-14T16:26:04.098Z,45.80
2018-04-14T16:28:31.257Z,45.70
2018-04-14T16:30:58.403Z,45.70
2018-04-14T16:33:25.549Z,45.60
2018-04-14T16:35:52.716Z,45.60
2018-04-14T16:38:19.841Z,45.70
2018-04-14T16:40:47.027Z,45.60
2018-04-14T16:43:14.173Z,45.60
2018-04-14T16:45:42.455Z,45.70
2018-04-14T16:48:09.585Z,45.50
2018-04-14T16:50:36.733Z,45.50
2018-04-14T16:53:03.937Z,45.60
2018-04-14T16:55:31.088Z,45.60
2018-04-14T16:57:58.237Z,45.60
2018-04-14T17:00:25.363Z,45.60
2018-04-14T17:02:52.471Z,45.60
2018-04-14T17:05:19.718Z,45.60
2018-04-14T17:07:46.841Z,45.60
2018-04-14T17:10:14.801Z,45.60
2018-04-14T17:12:42.225Z,45.60
2018-04-14T17:15:09.346Z,45.60
2018-04-14T17:17:36.478Z,45.60
2018-04-14T17:20:03.616Z,45.60
2018-04-14T17:22:30.761Z,45.60
2018-04-14T17:24:57.883Z,45.60
2018-04-14T17:27:25.126Z,45.70
2018-04-14T17:29:52.245Z,45.90
2018-04-14T17:32:19.401Z,46.10
2018-04-14T17:34:46.534Z,46.10
2018-04-14T17:37:13.426Z,46.10
2018-04-14T17:39:40.723Z,46.30
2018-04-14T17:42:07.873Z,46.30
2018-04-14T17:44:35.054Z,46.20
2018-04-14T17:47:02.173Z,46.80
2018-04-14T17:49:29.279Z,46.30
2018-04-14T17:51:56.415Z,46.30
2018-04-14T17:54:23.550Z,46.20
2018-04-14T17:56:50.694Z,46.20
2018-04-14T17:59:17.846Z,46.20
2018-04-14T18:01:44.788Z,46.10
2018-04-14T18:04:11.900Z,46.10
2018-04-14T18:06:39.826Z,46.10
2018-04-14T18:09:06.983Z,46.10
2018-04-14T18:11:34.158Z,46.10
2018-04-14T18:14:01.401Z,46.10
2018-04-14T18:16:28.546Z,46.20
2018-04-14T18:18:55.710Z,46.20
2018-04-14T18:21:22.868Z,46.60
2018-04-14T18:23:50.097Z,46.50
2018-04-14T18:26:17.297Z,46.60
2018-04-14T18:28:44.611Z,46.60
2018-04-14T18:31:11.784Z,46.70
2018-04-14T18:33:38.954Z,46.80
2018-04-14T18:36:06.090Z,46.60
2018-04-14T18:38:33.263Z,44.80
2018-04-14T18:41:00.677Z,44.30
2018-04-14T18:43:28.087Z,43.50
2018-04-14T18:45:55.257Z,44.00
2018-04-14T18:48:22.396Z,44.70
2018-04-14T18:50:49.576Z,44.70
2018-04-14T18:53:16.728Z,44.60
2018-04-14T18:55:43.867Z,44.50
2018-04-14T18:58:11.026Z,44.50
2018-04-14T19:00:38.187Z,44.50
2018-04-14T19:03:05.341Z,44.50
2018-04-14T19:05:32.507Z,44.50
2018-04-14T19:07:59.682Z,44.80
2018-04-14T19:10:27.025Z,44.90
2018-04-14T19:12:55.221Z,45.10
2018-04-14T19:15:22.365Z,45.10
2018-04-14T19:17:49.519Z,45.50
2018-04-14T19:20:16.663Z,45.30
2018-04-14T19:22:43.833Z,45.70
2018-04-14T19:25:10.988Z,45.80
2018-04-14T19:27:38.135Z,46.00
2018-04-14T19:30:05.288Z,46.10
2018-04-14T19:32:32.569Z,46.10
2018-04-14T19:35:00.920Z,46.20
2018-04-14T19:37:28.391Z,46.20
2018-04-14T19:39:55.564Z,46.40
2018-04-14T19:42:22.738Z,46.40
2018-04-14T19:44:49.928Z,46.60
2018-04-14T19:47:17.068Z,46.60
2018-04-14T19:49:44.294Z,46.50
2018-04-14T19:52:11.505Z,46.70
2018-04-14T19:54:38.659Z,46.70
2018-04-14T19:57:05.807Z,46.70
2018-04-14T19:59:32.961Z,46.70
2018-04-14T20:02:00.110Z,46.70
2018-04-14T20:04:28.027Z,46.70
2018-04-14T20:06:54.936Z,46.60
2018-04-14T20:09:22.075Z,46.70
2018-04-14T20:11:49.234Z,46.70
2018-04-14T20:14:16.449Z,46.70
2018-04-14T20:16:43.701Z,46.70
2018-04-14T20:19:10.997Z,46.70
2018-04-14T20:21:38.158Z,46.90
2018-04-14T20:24:05.319Z,47.00
2018-04-14T20:26:32.472Z,46.90
2018-04-14T20:28:59.680Z,46.80
2018-04-14T20:31:26.966Z,46.90
2018-04-14T20:33:54.130Z,47.00
2018-04-14T20:36:21.265Z,47.00
2018-04-14T20:38:48.511Z,47.00
2018-04-14T20:41:15.686Z,47.00
2018-04-14T20:43:42.900Z,46.90
2018-04-14T20:46:10.067Z,46.90
2018-04-14T20:48:37.193Z,47.00
2018-04-14T20:51:04.351Z,46.90
2018-04-14T20:59:11.418Z,47.40
2018-04-14T21:01:38.573Z,47.20
2018-04-14T21:04:05.744Z,47.10
2018-04-14T21:06:32.988Z,47.10
2018-04-14T21:09:00.922Z,47.00
2018-04-14T21:11:30.114Z,47.20
2018-04-14T21:13:57.270Z,47.20
2018-04-14T21:16:25.221Z,47.20
2018-04-14T21:18:53.922Z,47.30
2018-04-14T21:21:21.353Z,47.20
2018-04-14T21:23:48.507Z,47.20
2018-04-14T21:26:15.723Z,47.20
2018-04-14T21:28:42.892Z,47.40
2018-04-14T21:31:10.046Z,47.30
2018-04-14T21:33:37.209Z,47.20
2018-04-14T21:36:04.402Z,47.30
2018-04-14T21:38:31.536Z,47.40
2018-04-14T21:40:58.689Z,47.70
2018-04-14T21:43:26.601Z,47.80
2018-04-14T21:45:53.727Z,47.70
2018-04-14T21:48:20.911Z,47.90
2018-04-14T21:50:47.805Z,47.70
2018-04-14T21:53:14.737Z,48.00
2018-04-14T21:55:42.629Z,48.10
2018-04-14T21:58:10.575Z,48.10
2018-04-14T22:00:37.736Z,48.00
2018-04-14T22:03:04.893Z,48.00
2018-04-14T22:05:32.041Z,48.10
2018-04-14T22:07:59.173Z,48.00
2018-04-14T22:10:26.339Z,48.00
2018-04-14T22:12:53.822Z,48.00
2018-04-14T22:15:20.956Z,48.00
2018-04-14T22:17:49.204Z,48.00
2018-04-14T22:20:16.368Z,48.00
2018-04-14T22:22:44.276Z,48.50
2018-04-14T22:25:11.640Z,48.00
2018-04-14T22:27:38.822Z,48.00
2018-04-14T22:30:05.990Z,48.00
2018-04-14T22:32:33.127Z,48.00
2018-04-14T22:35:00.348Z,48.20
2018-04-14T22:37:28.016Z,48.10
2018-04-14T22:39:55.172Z,48.00
2018-04-14T22:42:22.372Z,48.00
2018-04-14T22:44:49.522Z,48.30
2018-04-14T22:47:16.745Z,48.00
2018-04-14T22:49:44.024Z,48.20
2018-04-14T22:52:11.175Z,48.00
2018-04-14T22:54:38.336Z,48.30
2018-04-14T22:57:05.594Z,48.40
2018-04-14T22:59:32.757Z,48.30
2018-04-14T23:01:59.984Z,48.40
2018-04-14T23:04:27.130Z,48.00
2018-04-14T23:06:54.340Z,48.30
2018-04-14T23:09:22.236Z,48.40
2018-04-14T23:11:49.396Z,48.90
2018-04-14T23:14:16.547Z,48.40
2018-04-14T23:16:43.803Z,48.20
2018-04-14T23:19:10.949Z,48.30
2018-04-14T23:21:38.947Z,48.50
2018-04-14T23:24:06.115Z,48.50
2018-04-14T23:26:33.352Z,48.50
2018-04-14T23:29:00.525Z,48.60
2018-04-14T23:31:29.360Z,48.60
2018-04-14T23:33:56.613Z,48.60
2018-04-14T23:36:23.813Z,48.60
2018-04-14T23:38:50.990Z,48.50
2018-04-14T23:41:18.191Z,49.00
2018-04-14T23:43:45.340Z,48.40
2018-04-14T23:46:12.585Z,48.50
2018-04-14T23:48:39.787Z,48.40
2018-04-14T23:51:07.709Z,48.40
2018-04-14T23:53:35.720Z,48.60
2018-04-14T23:56:02.623Z,49.20
2018-04-14T23:58:29.756Z,48.60
